Honiton, United Kingdom
Current Conditions -  °F | °C
As of 12:20 AM on Saturday 22 Nov 2014 (Local Time) from EGTE Reporting Station
Moderate Rain Moderate Rain  
Wind Chill: 55°   Ceiling: Unl
Heat Index: 55°   Visibility: 4mi
Dew Point: 54°   Wind: 17mph
Humidity: 94%   Direction: 170°S
Pressure: 29.8"   Gusts: NA
Location:  50.8°N, 3.19°W
Report Text: EGTE 220020Z 17015KT 7000 RA SCT005 SCT010 13/12 Q1009
Loading
Personal Weather Stations






























Interactive Weather Map New forecast layout! Learn more

10-Day Weather Forecast

Advertisements
Track Severe Weather on mobile